createdAt,value
2022-09-02T00:03:43.654Z,101146.78
2022-09-02T00:08:45.348Z,101143.22
2022-09-02T00:13:47.259Z,101143.69
2022-09-02T00:18:48.655Z,101138.44
2022-09-02T00:23:50.181Z,101134.34
2022-09-02T00:28:56.303Z,101134.50
2022-09-02T00:33:57.980Z,101130.94
2022-09-02T00:38:59.625Z,101124.88
2022-09-02T00:44:07.998Z,101118.91
2022-09-02T00:49:17.910Z,101119.66
2022-09-02T00:54:20.641Z,101119.31
2022-09-02T00:59:38.379Z,101121.22
2022-09-02T01:04:39.799Z,101112.47
2022-09-02T01:09:41.546Z,101112.63
2022-09-02T01:14:43.185Z,101116.41
2022-09-02T01:19:49.049Z,101122.28
2022-09-02T01:24:50.955Z,101121.38
2022-09-02T01:29:54.592Z,101116.16
2022-09-02T01:34:56.067Z,101119.81
2022-09-02T01:39:58.456Z,101104.28
2022-09-02T01:45:00.160Z,101110.41
2022-09-02T01:50:02.443Z,101105.81
2022-09-02T01:55:05.019Z,101099.06
2022-09-02T02:00:09.578Z,101092.03
2022-09-02T02:05:11.803Z,101083.97
2022-09-02T02:10:15.440Z,101087.47
2022-09-02T02:15:19.742Z,101093.09
2022-09-02T02:20:21.896Z,101102.69
2022-09-02T02:25:23.459Z,101103.75
2022-09-02T02:30:32.694Z,101102.34
2022-09-02T02:35:34.224Z,101099.66
2022-09-02T02:40:36.605Z,101095.31
2022-09-02T02:45:51.130Z,101100.97
2022-09-02T02:50:52.749Z,101090.69
2022-09-02T03:01:20.336Z,101094.19
2022-09-02T03:06:26.464Z,101095.97
2022-09-02T03:11:28.780Z,101092.94
2022-09-02T03:16:30.327Z,101099.63
2022-09-02T03:21:39.227Z,101094.88
2022-09-02T03:26:42.431Z,101087.16
2022-09-02T03:31:44.076Z,101086.84
2022-09-02T03:36:46.383Z,101089.19
2022-09-02T03:41:47.809Z,101086.72
2022-09-02T03:46:49.393Z,101085.22
2022-09-02T03:51:50.784Z,101087.09
2022-09-02T03:56:52.217Z,101089.69
2022-09-02T04:02:28.074Z,101081.41
2022-09-02T04:07:39.912Z,101085.59
2022-09-02T04:18:33.960Z,101080.34
2022-09-02T04:23:35.563Z,101083.53
2022-09-02T04:28:40.079Z,101081.66
2022-09-02T04:33:45.246Z,101074.41
2022-09-02T04:38:48.901Z,101078.38
2022-09-02T04:50:52.513Z,101074.91
2022-09-02T04:55:57.801Z,101077.00
2022-09-02T05:07:22.260Z,101080.84
2022-09-02T05:12:24.436Z,101079.06
2022-09-02T05:17:58.468Z,101069.72
2022-09-02T05:23:27.914Z,101069.22
2022-09-02T05:28:58.840Z,101069.34
2022-09-02T06:09:02.076Z,101076.06
2022-09-02T06:42:25.806Z,101068.25
2022-09-02T06:47:49.412Z,101079.38
2022-09-02T06:53:07.522Z,101074.66
2022-09-02T07:23:00.362Z,101075.97
2022-09-02T07:40:51.137Z,101054.66
2022-09-02T07:56:31.588Z,101055.22
2022-09-02T08:01:52.251Z,101047.56
2022-09-02T08:25:09.878Z,101046.91
2022-09-02T08:30:11.653Z,101049.81
2022-09-02T08:35:58.484Z,101042.53
2022-09-02T08:41:00.597Z,101039.59
2022-09-02T08:57:13.146Z,101041.50
2022-09-02T09:02:21.550Z,101039.66
2022-09-02T09:07:50.835Z,101037.94
2022-09-02T09:13:13.851Z,101022.78
2022-09-02T09:18:30.907Z,101020.59
2022-09-02T09:23:36.023Z,101018.75
2022-09-02T09:28:43.477Z,101000.50
2022-09-02T09:34:09.330Z,100998.44
2022-09-02T09:39:41.860Z,101007.38
2022-09-02T09:44:45.578Z,100995.78
2022-09-02T09:50:25.104Z,100984.63
2022-09-02T09:55:28.754Z,100974.31
2022-09-02T10:00:38.406Z,100980.66
2022-09-02T10:17:15.453Z,100981.59
2022-09-02T10:22:58.652Z,100976.72
2022-09-02T10:46:05.714Z,100949.03
2022-09-02T11:21:04.663Z,100935.06
2022-09-02T11:26:35.568Z,100932.91
2022-09-02T11:32:02.454Z,100924.94
2022-09-02T11:37:06.401Z,100912.72
2022-09-02T11:49:44.793Z,100915.91
2022-09-02T12:02:01.397Z,100903.97
2022-09-02T12:07:57.082Z,100900.91
2022-09-02T12:14:07.757Z,100894.72
2022-09-02T12:19:09.700Z,100893.94
2022-09-02T12:31:13.623Z,100879.38
2022-09-02T12:36:57.640Z,100884.47
2022-09-02T12:42:32.696Z,100863.94
2022-09-02T12:53:51.082Z,100862.13
2022-09-02T13:11:45.128Z,100841.13
2022-09-02T13:17:37.002Z,100836.56
2022-09-02T13:23:03.445Z,100833.59
2022-09-02T13:28:47.699Z,100838.91
2022-09-02T14:14:47.579Z,100752.53
2022-09-02T14:26:02.738Z,100741.59
2022-09-02T14:31:25.674Z,100749.00
2022-09-02T14:41:53.388Z,100724.09
2022-09-02T14:47:34.067Z,100739.34
2022-09-02T14:53:03.701Z,100734.19
2022-09-02T14:58:08.471Z,100727.44
2022-09-02T15:03:18.987Z,100723.75
2022-09-02T15:08:59.093Z,100719.94
2022-09-02T15:14:00.718Z,100709.91
2022-09-02T15:19:02.186Z,100713.09
2022-09-02T15:24:04.020Z,100700.53
2022-09-02T15:29:05.446Z,100697.88
2022-09-02T15:34:06.832Z,100691.28
2022-09-02T15:39:08.315Z,100695.72
2022-09-02T15:44:10.348Z,100694.56
2022-09-02T15:49:17.467Z,100696.09
2022-09-02T15:54:21.684Z,100696.66
2022-09-02T15:59:23.258Z,100686.00
2022-09-02T16:04:25.581Z,100690.16
2022-09-02T16:09:27.116Z,100681.47
2022-09-02T16:14:28.709Z,100680.69
2022-09-02T16:19:30.587Z,100674.41
2022-09-02T16:24:32.355Z,100675.91
2022-09-02T16:29:33.820Z,100675.41
2022-09-02T16:34:38.277Z,100662.84
2022-09-02T16:39:39.905Z,100657.41
2022-09-02T16:44:41.463Z,100658.34
2022-09-02T16:49:42.960Z,100651.50
2022-09-02T16:54:44.525Z,100650.84
2022-09-02T16:59:46.496Z,100644.88
2022-09-02T17:04:48.100Z,100643.69
2022-09-02T17:09:50.135Z,100647.16
2022-09-02T17:14:51.792Z,100643.38
2022-09-02T17:20:13.359Z,100658.75
2022-09-02T17:25:15.635Z,100655.75
2022-09-02T17:30:17.290Z,100651.06
2022-09-02T17:35:18.834Z,100654.97
2022-09-02T17:40:20.360Z,100650.63
2022-09-02T17:45:25.799Z,100651.97
2022-09-02T17:50:27.643Z,100658.84
2022-09-02T17:55:56.517Z,100653.13
2022-09-02T18:01:01.402Z,100641.94
2022-09-02T18:06:25.233Z,100640.81
2022-09-02T18:11:27.245Z,100642.94
2022-09-02T18:16:39.689Z,100643.81
2022-09-02T18:21:52.367Z,100642.69
2022-09-02T18:27:45.153Z,100638.81
2022-09-02T18:33:22.508Z,100641.31
2022-09-02T18:38:59.276Z,100645.56
2022-09-02T18:44:29.328Z,100643.78
2022-09-02T18:49:34.071Z,100655.59
2022-09-02T18:54:59.685Z,100657.97
2022-09-02T19:00:15.916Z,100664.88
2022-09-02T19:05:37.806Z,100660.16
2022-09-02T19:10:39.412Z,100665.50
2022-09-02T19:15:41.308Z,100667.31
2022-09-02T19:20:43.058Z,100673.16
2022-09-02T19:26:05.669Z,100673.88
2022-09-02T19:31:11.267Z,100673.16
2022-09-02T19:36:23.764Z,100669.75
2022-09-02T19:41:27.769Z,100665.25
2022-09-02T19:47:15.332Z,100663.38
2022-09-02T19:51:51.099Z,100660.22
2022-09-02T19:57:00.048Z,100667.44
2022-09-02T20:02:01.672Z,100660.13
2022-09-02T20:18:52.151Z,100666.09
2022-09-02T20:24:05.413Z,100663.44
2022-09-02T20:29:40.290Z,100656.72
2022-09-02T20:34:41.950Z,100656.50
2022-09-02T20:40:08.557Z,100650.34
2022-09-02T20:45:27.783Z,100656.31
2022-09-02T20:51:01.402Z,100647.16
2022-09-02T21:01:47.358Z,100645.81
2022-09-02T21:07:48.004Z,100643.66
2022-09-02T21:12:52.679Z,100644.22
2022-09-02T21:23:36.378Z,100653.25
2022-09-02T21:29:19.731Z,100646.75
2022-09-02T21:34:45.908Z,100645.94
2022-09-02T21:39:58.853Z,100637.28
2022-09-02T21:51:02.367Z,100637.56
2022-09-02T21:56:43.830Z,100642.69
2022-09-02T22:08:00.286Z,100641.88
2022-09-02T22:24:33.323Z,100634.53
2022-09-02T22:35:39.560Z,100638.28
2022-09-02T22:47:09.582Z,100643.38
2022-09-02T22:59:02.276Z,100629.56
2022-09-02T23:04:58.350Z,100628.19
2022-09-02T23:10:01.981Z,100633.25
2022-09-02T23:16:02.458Z,100631.34
2022-09-02T23:21:33.870Z,100626.47
2022-09-02T23:27:28.606Z,100622.13
2022-09-02T23:32:45.931Z,100622.94
2022-09-02T23:38:06.229Z,100621.28
2022-09-02T23:43:12.185Z,100613.72
2022-09-02T23:48:27.490Z,100615.81
